Time;durP1;ratioP1;P1;durP2;ratioP2;P2;SDS_P1;SDS_P2;PMS_P1;PMS_P2;Temp;Humidity;BMP_temperature;BMP_pressure;BME280_temperature;BME280_humidity;BME280_pressure;Samples;Min_cycle;Max_cycle;Signal;HPM_P1;HPM_P2
2022/11/27 00:00:22;;;;;;;117.87;105.70;;;0.30;46.10;;;;;;5074652;28;20443;-71
2022/11/27 00:02:47;;;;;;;139.00;125.73;;;0.30;47.40;;;;;;5074458;28;20181;-71
2022/11/27 00:05:13;;;;;;;212.50;194.33;;;0.40;46.70;;;;;;5074623;28;20181;-71
2022/11/27 00:07:38;;;;;;;175.27;159.70;;;0.40;46.70;;;;;;5074635;28;20179;-71
2022/11/27 00:10:05;;;;;;;116.17;103.63;;;0.30;46.60;;;;;;5074385;28;20212;-71
2022/11/27 00:12:30;;;;;;;150.65;135.68;;;0.30;48.40;;;;;;5074519;28;20177;-71
2022/11/27 00:14:56;;;;;;;274.00;251.30;;;0.30;48.30;;;;;;5076250;28;20251;-71
2022/11/27 00:17:22;;;;;;;138.73;125.33;;;0.40;50.60;;;;;;5076088;28;20327;-71
2022/11/27 00:19:47;;;;;;;274.80;254.40;;;0.40;50.60;;;;;;5080304;28;20712;-71
2022/11/27 00:22:13;;;;;;;164.70;150.17;;;0.40;52.10;;;;;;5094406;28;20169;-71
2022/11/27 00:24:38;;;;;;;177.87;162.30;;;0.40;52.20;;;;;;5094548;28;20262;-71
2022/11/27 00:27:04;;;;;;;119.67;107.20;;;0.50;52.90;;;;;;5094388;28;20201;-71
2022/11/27 00:29:30;;;;;;;123.17;110.83;;;0.50;52.80;;;;;;5094276;28;20203;-71
2022/11/27 00:31:56;;;;;;;143.45;130.27;;;0.50;53.00;;;;;;5090109;28;20636;-71
2022/11/27 00:34:22;;;;;;;144.27;130.68;;;0.60;52.30;;;;;;5074023;28;20174;-71
2022/11/27 00:36:47;;;;;;;128.57;112.70;;;0.60;52.80;;;;;;5074140;28;20179;-71
2022/11/27 00:39:13;;;;;;;142.07;127.80;;;0.50;54.00;;;;;;5074024;28;20405;-71
2022/11/27 00:41:38;;;;;;;146.87;133.10;;;0.50;54.10;;;;;;5073849;28;20190;-71
2022/11/27 00:44:04;;;;;;;124.53;112.10;;;0.60;54.20;;;;;;5073930;28;20170;-71
2022/11/27 00:46:32;;;;;;;122.83;110.13;;;0.60;54.30;;;;;;5080879;28;20177;-72
2022/11/27 00:48:59;;;;;;;153.20;139.70;;;0.70;53.90;;;;;;5093882;28;20407;-71
2022/11/27 00:51:25;;;;;;;147.18;133.68;;;0.60;54.30;;;;;;5093832;28;20193;-71
2022/11/27 00:53:51;;;;;;;134.55;121.63;;;0.70;54.40;;;;;;5093876;28;20243;-71
2022/11/27 00:56:27;;;;;;;156.75;141.43;;;0.70;54.30;;;;;;5094317;28;20259;-71
2022/11/27 00:58:53;;;;;;;193.43;177.98;;;0.70;54.40;;;;;;5093876;28;20150;-72
2022/11/27 01:01:22;;;;;;;149.18;135.82;;;0.70;55.70;;;;;;5093438;28;20734;-71
2022/11/27 01:03:48;;;;;;;217.93;200.75;;;;;;;;;;5092377;28;20565;-72
2022/11/27 01:06:14;;;;;;;167.57;153.20;;;;;;;;;;5093908;28;20192;-72
2022/11/27 01:08:40;;;;;;;143.00;129.57;;;0.90;46.10;;;;;;5093814;28;20652;-71
2022/11/27 01:11:06;;;;;;;123.80;112.00;;;0.70;41.60;;;;;;5092045;28;20209;-71
2022/11/27 01:13:34;;;;;;;143.73;130.63;;;0.70;39.00;;;;;;5093363;28;20786;-71
2022/11/27 01:16:06;;;;;;;138.57;125.28;;;0.60;39.50;;;;;;5093238;28;20169;-71
2022/11/27 01:18:32;;;;;;;113.78;101.93;;;0.60;39.50;;;;;;5093286;28;20606;-70
2022/11/27 01:20:58;;;;;;;151.25;137.43;;;0.60;41.20;;;;;;5093334;28;20583;-71
2022/11/27 01:23:24;;;;;;;185.32;169.32;;;0.60;40.00;;;;;;5092971;28;20268;-71
2022/11/27 01:25:52;;;;;;;198.13;182.47;;;0.70;41.20;;;;;;5093337;28;20266;-71
2022/11/27 01:28:19;;;;;;;339.33;314.42;;;0.70;39.70;;;;;;5092933;28;20294;-72
2022/11/27 01:30:44;;;;;;;230.70;212.55;;;0.60;39.50;;;;;;5092948;28;20301;-71
2022/11/27 01:33:10;;;;;;;240.37;222.83;;;0.60;39.50;;;;;;5092858;28;20723;-71
2022/11/27 01:35:36;;;;;;;188.07;172.33;;;0.50;39.50;;;;;;5093073;28;20196;-71
2022/11/27 01:38:01;;;;;;;166.90;149.83;;;0.40;39.50;;;;;;5093055;28;20647;-71
2022/11/27 01:40:27;;;;;;;146.30;132.20;;;0.40;40.00;;;;;;5093033;28;20193;-72
2022/11/27 01:42:52;;;;;;;159.70;145.23;;;0.40;39.40;;;;;;5085351;28;20185;-71
2022/11/27 01:45:20;;;;;;;450.03;417.70;;;0.20;39.50;;;;;;5072578;28;20173;-72
2022/11/27 01:47:50;;;;;;;186.52;168.10;;;0.10;40.90;;;;;;5072567;28;20652;-72
2022/11/27 01:50:28;;;;;;;275.50;254.55;;;0.20;40.90;;;;;;5072456;28;20639;-72
2022/11/27 01:53:01;;;;;;;289.58;270.13;;;0.10;41.30;;;;;;5072368;28;20157;-72
2022/11/27 01:55:32;;;;;;;115.90;104.05;;;0.20;41.80;;;;;;5072474;28;20165;-72
2022/11/27 01:58:04;;;;;;;151.02;136.80;;;0.10;41.40;;;;;;5071930;28;20197;-72
2022/11/27 02:00:29;;;;;;;135.57;122.55;;;-0.10;41.00;;;;;;5072673;28;20208;-71
2022/11/27 02:02:55;;;;;;;93.03;54.97;;;-0.10;41.50;;;;;;5072279;28;20538;-72
2022/11/27 02:05:24;;;;;;;323.27;301.97;;;-0.10;42.30;;;;;;5072299;28;20184;-72
2022/11/27 02:07:52;;;;;;;120.95;108.15;;;-0.10;42.50;;;;;;5072112;28;20185;-72
2022/11/27 02:10:18;;;;;;;340.13;315.80;;;-0.10;42.20;;;;;;5072069;28;20262;-72
2022/11/27 02:13:09;;;;;;;154.02;139.57;;;-0.20;42.90;;;;;;5072014;28;20592;-72
2022/11/27 02:15:48;;;;;;;261.00;241.52;;;-0.10;42.30;;;;;;5072031;28;20173;-72
2022/11/27 02:18:34;;;;;;;180.23;165.63;;;-0.20;42.00;;;;;;5072224;28;20284;-72
2022/11/27 02:21:21;;;;;;;104.50;87.82;;;-0.20;42.40;;;;;;5072023;28;20208;-72
2022/11/27 02:24:17;;;;;;;232.52;215.70;;;-0.20;41.60;;;;;;5071931;28;20178;-72
2022/11/27 02:27:01;;;;;;;112.50;101.32;;;-0.20;42.00;;;;;;5071991;28;20215;-72
2022/11/27 02:29:33;;;;;;;95.82;77.28;;;-0.20;41.00;;;;;;5071782;28;20574;-72
2022/11/27 02:32:15;;;;;;;112.80;100.13;;;-0.20;40.70;;;;;;5071779;28;20604;-71
2022/11/27 02:35:03;;;;;;;90.97;75.03;;;-0.30;40.20;;;;;;5071951;28;20271;-71
2022/11/27 02:38:09;;;;;;;90.00;57.88;;;-0.30;42.00;;;;;;5071901;28;20181;-71
2022/11/27 02:40:59;;;;;;;92.97;76.60;;;-0.20;42.70;;;;;;5072298;28;20528;-71
2022/11/27 02:43:31;;;;;;;99.13;74.43;;;-0.30;41.70;;;;;;5071619;28;20182;-72
2022/11/27 02:45:58;;;;;;;94.47;81.43;;;-0.30;42.50;;;;;;5071904;28;20212;-72
2022/11/27 02:48:29;;;;;;;158.52;145.30;;;-0.30;42.30;;;;;;5071760;28;20260;-71
2022/11/27 02:50:55;;;;;;;97.32;77.88;;;-0.30;42.40;;;;;;5078385;28;20229;-71
2022/11/27 02:53:38;;;;;;;93.07;80.77;;;-0.30;42.70;;;;;;5091759;28;20214;-71
2022/11/27 02:56:07;;;;;;;96.88;67.72;;;-0.20;43.00;;;;;;5091847;28;20176;-71
2022/11/27 02:58:35;;;;;;;105.65;87.72;;;-0.30;41.20;;;;;;5091733;28;20308;-72
2022/11/27 03:01:03;;;;;;;101.22;90.13;;;-0.30;41.30;;;;;;5091817;28;20225;-71
2022/11/27 03:03:34;;;;;;;86.88;68.70;;;-0.40;41.60;;;;;;5091696;28;20199;-71
2022/11/27 03:06:07;;;;;;;95.25;72.75;;;-0.40;42.00;;;;;;5082125;28;20242;-72
2022/11/27 03:09:01;;;;;;;86.38;51.97;;;-0.40;42.10;;;;;;5071579;28;20172;-72
2022/11/27 03:11:29;;;;;;;95.53;74.50;;;-0.30;42.30;;;;;;5074388;28;20253;-71
2022/11/27 03:13:58;;;;;;;91.93;64.07;;;-0.30;43.00;;;;;;5075557;28;20169;-72
2022/11/27 03:16:36;;;;;;;169.65;155.52;;;-0.20;42.20;;;;;;5087037;28;20207;-72
2022/11/27 03:19:01;;;;;;;96.10;82.32;;;-0.10;40.50;;;;;;5095842;28;20190;-71
2022/11/27 03:21:38;;;;;;;91.13;69.63;;;-0.20;40.10;;;;;;5094341;28;20196;-72
2022/11/27 03:24:05;;;;;;;92.50;73.60;;;-0.20;40.60;;;;;;5096076;28;20655;-72
2022/11/27 03:26:31;;;;;;;107.50;92.15;;;-0.10;42.40;;;;;;5095490;28;20184;-72
2022/11/27 03:28:58;;;;;;;99.10;71.73;;;-0.10;41.40;;;;;;5094315;28;20177;-72
2022/11/27 03:31:25;;;;;;;85.80;61.65;;;-0.10;41.80;;;;;;5095402;28;20752;-72
2022/11/27 03:33:52;;;;;;;82.85;51.90;;;-0.10;42.10;;;;;;5095579;28;20553;-72
2022/11/27 03:36:20;;;;;;;85.13;61.15;;;0.00;42.00;;;;;;5094210;28;20181;-71
2022/11/27 03:38:47;;;;;;;111.70;99.78;;;0.00;41.60;;;;;;5095450;28;20169;-71
2022/11/27 03:41:32;;;;;;;93.63;67.05;;;0.00;40.50;;;;;;5088945;28;20231;-71
2022/11/27 03:44:28;;;;;;;98.53;85.63;;;-0.10;41.00;;;;;;5075219;28;20710;-71
2022/11/27 03:47:19;;;;;;;94.43;77.70;;;-0.10;41.60;;;;;;5075031;28;20537;-71
2022/11/27 03:49:48;;;;;;;93.35;74.20;;;-0.10;42.00;;;;;;5074887;28;20206;-71
2022/11/27 03:52:34;;;;;;;116.93;105.82;;;0.00;41.50;;;;;;5074872;28;20172;-71
2022/11/27 03:55:14;;;;;;;122.10;110.00;;;-0.10;41.50;;;;;;5079496;28;20247;-71
2022/11/27 03:57:51;;;;;;;89.43;62.05;;;0.00;41.00;;;;;;5095062;28;20582;-70
2022/11/27 04:00:17;;;;;;;85.65;64.38;;;-0.10;39.80;;;;;;5094779;28;20218;-71
2022/11/27 04:02:50;;;;;;;105.47;94.93;;;-0.10;40.40;;;;;;5094848;28;20669;-70
2022/11/27 04:05:16;;;;;;;110.53;94.72;;;0.00;39.70;;;;;;5094920;28;20180;-71
2022/11/27 04:07:41;;;;;;;102.10;90.07;;;0.00;39.00;;;;;;5093580;28;20184;-71
2022/11/27 04:10:09;;;;;;;179.10;164.30;;;0.10;39.10;;;;;;5082341;28;20210;-71
2022/11/27 04:12:34;;;;;;;171.13;156.75;;;-0.10;38.00;;;;;;5074426;28;20177;-71
2022/11/27 04:15:00;;;;;;;88.03;74.17;;;-0.10;39.00;;;;;;5074509;28;20188;-71
2022/11/27 04:17:25;;;;;;;91.30;70.07;;;-0.10;39.70;;;;;;5074468;28;20643;-71
2022/11/27 04:19:51;;;;;;;180.13;165.93;;;-0.20;40.10;;;;;;5074315;28;20211;-71
2022/11/27 04:22:17;;;;;;;110.37;99.37;;;-0.30;39.80;;;;;;5075235;28;20186;-71
2022/11/27 04:24:42;;;;;;;87.40;73.87;;;-0.30;40.80;;;;;;5094571;28;20207;-71
2022/11/27 04:27:08;;;;;;;214.63;196.60;;;-0.30;40.80;;;;;;5094454;28;20407;-71
2022/11/27 04:29:35;;;;;;;211.70;195.63;;;-0.30;40.70;;;;;;5094391;28;20200;-70
2022/11/27 04:32:01;;;;;;;153.65;140.75;;;-0.30;40.60;;;;;;5094388;28;20908;-70
2022/11/27 04:34:27;;;;;;;127.70;113.05;;;-0.30;40.40;;;;;;5093037;28;20173;-71
2022/11/27 04:36:52;;;;;;;95.23;77.63;;;-0.30;40.10;;;;;;5094280;28;20585;-71
2022/11/27 04:39:18;;;;;;;106.77;95.30;;;-0.40;40.40;;;;;;5094316;28;20243;-70
2022/11/27 04:41:43;;;;;;;85.40;63.47;;;-0.40;39.90;;;;;;5094039;28;20250;-71
2022/11/27 04:44:10;;;;;;;86.40;68.23;;;-0.30;40.10;;;;;;5094200;28;20240;-70
2022/11/27 04:46:36;;;;;;;97.32;78.32;;;-0.30;39.50;;;;;;5094161;28;20180;-71
2022/11/27 04:49:02;;;;;;;80.97;55.47;;;-0.40;39.00;;;;;;5094152;28;20183;-70
2022/11/27 04:51:27;;;;;;;93.60;71.05;;;-0.30;39.10;;;;;;5093946;28;20204;-71
2022/11/27 04:53:53;;;;;;;82.60;58.37;;;-0.30;38.80;;;;;;5093978;28;20169;-71
2022/11/27 04:56:19;;;;;;;100.10;81.27;;;-0.30;49.10;;;;;;5093854;28;20188;-71
2022/11/27 04:58:44;;;;;;;127.03;114.47;;;-0.40;48.70;;;;;;5093891;28;20180;-71
2022/11/27 05:01:10;;;;;;;84.03;59.53;;;-0.60;49.70;;;;;;5093698;28;20216;-71
2022/11/27 05:03:36;;;;;;;184.57;170.70;;;;;;;;;;5093798;28;20190;-71
2022/11/27 05:06:01;;;;;;;87.83;74.53;;;;;;;;;;5094133;28;20221;-70
2022/11/27 05:08:29;;;;;;;105.23;94.17;;;-0.70;46.70;;;;;;5093634;28;20505;-70
2022/11/27 05:11:06;;;;;;;201.38;186.90;;;-0.70;47.90;;;;;;5093476;28;20509;-71
2022/11/27 05:13:32;;;;;;;89.72;71.97;;;-0.60;47.10;;;;;;5092743;28;20626;-71
2022/11/27 05:15:58;;;;;;;91.63;74.15;;;-0.70;46.00;;;;;;5073339;28;20236;-71
2022/11/27 05:18:24;;;;;;;91.23;77.10;;;-0.70;46.00;;;;;;5073296;28;20585;-71
2022/11/27 05:21:01;;;;;;;118.13;106.73;;;-0.70;45.50;;;;;;5073165;28;20207;-71
2022/11/27 05:23:27;;;;;;;91.10;70.13;;;-0.70;45.40;;;;;;5073195;28;20396;-71
2022/11/27 05:25:54;;;;;;;85.53;61.30;;;-0.70;45.20;;;;;;5073075;28;20185;-70
2022/11/27 05:28:20;;;;;;;89.40;64.00;;;-0.70;45.20;;;;;;5073010;28;20199;-70
2022/11/27 05:30:46;;;;;;;85.20;67.82;;;-0.80;44.70;;;;;;5072767;28;20209;-71
2022/11/27 05:33:11;;;;;;;89.63;67.13;;;-0.80;44.60;;;;;;5072017;28;20218;-70
2022/11/27 05:35:37;;;;;;;111.77;100.37;;;-0.90;45.40;;;;;;5071661;28;20455;-70
2022/11/27 05:38:02;;;;;;;133.00;120.67;;;-0.90;45.90;;;;;;5072868;28;20203;-71
2022/11/27 05:40:28;;;;;;;86.57;65.17;;;-0.90;40.40;;;;;;5072845;28;20215;-70
2022/11/27 05:42:54;;;;;;;96.63;75.60;;;-0.90;40.80;;;;;;5072757;28;20176;-71
2022/11/27 05:45:19;;;;;;;87.40;64.73;;;-1.00;40.40;;;;;;5072876;28;20186;-70
2022/11/27 05:47:45;;;;;;;88.17;70.90;;;-1.00;40.70;;;;;;5072640;28;20223;-71
2022/11/27 05:50:10;;;;;;;86.23;65.13;;;-1.10;41.50;;;;;;5072484;28;20223;-70
2022/11/27 05:52:36;;;;;;;85.53;65.07;;;-1.10;41.60;;;;;;5072620;28;20176;-70
2022/11/27 05:55:02;;;;;;;86.67;60.60;;;-1.00;41.70;;;;;;5072469;28;20181;-70
2022/11/27 05:57:29;;;;;;;102.07;91.47;;;-1.00;42.00;;;;;;5072459;28;20600;-70
2022/11/27 05:59:55;;;;;;;111.13;91.90;;;-1.00;41.40;;;;;;5072275;28;20238;-70
2022/11/27 06:02:21;;;;;;;94.57;84.65;;;-1.00;40.50;;;;;;5072241;28;20172;-74
2022/11/27 06:04:47;;;;;;;89.30;69.47;;;-1.00;41.10;;;;;;5081900;28;20256;-73
2022/11/27 06:07:12;;;;;;;101.83;91.13;;;-0.90;41.00;;;;;;5092554;28;20171;-72
2022/11/27 06:09:38;;;;;;;93.70;79.27;;;-0.90;40.50;;;;;;5092396;28;20243;-72
2022/11/27 06:12:03;;;;;;;82.20;65.53;;;-0.80;40.00;;;;;;5092073;28;20186;-72
2022/11/27 06:14:30;;;;;;;88.40;78.63;;;-0.80;39.30;;;;;;5092427;28;20217;-72
2022/11/27 06:16:56;;;;;;;90.00;73.75;;;-0.80;38.40;;;;;;5092444;28;20283;-72
2022/11/27 06:19:22;;;;;;;80.30;64.13;;;-1.00;37.70;;;;;;5092385;28;20257;-72
2022/11/27 06:21:47;;;;;;;112.53;101.80;;;-0.90;38.30;;;;;;5092201;28;20442;-72
2022/11/27 06:24:13;;;;;;;83.80;63.93;;;-0.90;37.50;;;;;;5092285;28;20236;-72
2022/11/27 06:26:38;;;;;;;78.00;56.90;;;-0.90;37.60;;;;;;5091899;28;20280;-70
2022/11/27 06:29:04;;;;;;;90.03;73.67;;;-0.90;37.70;;;;;;5092162;28;20440;-71
2022/11/27 06:31:31;;;;;;;84.73;62.10;;;-0.80;36.50;;;;;;5091827;28;20334;-71
2022/11/27 06:33:58;;;;;;;80.38;60.95;;;-0.90;36.30;;;;;;5092076;28;20644;-71
2022/11/27 06:36:27;;;;;;;82.70;58.85;;;-0.90;36.30;;;;;;5092023;28;20187;-70
2022/11/27 06:38:53;;;;;;;84.05;66.72;;;-0.90;36.60;;;;;;5092048;28;20177;-70
2022/11/27 06:41:20;;;;;;;84.50;65.97;;;-0.90;36.60;;;;;;5092287;28;20223;-70
2022/11/27 06:43:46;;;;;;;81.18;64.55;;;-1.00;35.80;;;;;;5083048;28;20187;-70
2022/11/27 06:46:14;;;;;;;78.40;54.58;;;-1.00;36.10;;;;;;5071601;28;20189;-70
2022/11/27 06:48:41;;;;;;;79.30;57.58;;;-1.00;36.50;;;;;;5071537;28;20186;-70
2022/11/27 06:51:08;;;;;;;84.78;75.60;;;-1.10;36.20;;;;;;5071748;28;20210;-70
2022/11/27 06:53:36;;;;;;;78.32;56.45;;;-1.10;37.90;;;;;;5071652;28;20631;-70
2022/11/27 06:56:07;;;;;;;78.18;57.47;;;-1.10;37.40;;;;;;5071703;28;20550;-70
2022/11/27 06:58:33;;;;;;;89.75;76.47;;;-1.10;37.70;;;;;;5071838;28;20175;-70
2022/11/27 07:01:00;;;;;;;99.50;89.30;;;-1.10;37.00;;;;;;5072005;28;20651;-70
2022/11/27 07:03:26;;;;;;;83.32;61.42;;;-1.30;36.50;;;;;;5071449;28;20488;-70
2022/11/27 07:05:52;;;;;;;86.33;71.47;;;-1.40;38.00;;;;;;5070347;28;20179;-70
2022/11/27 07:08:17;;;;;;;84.60;67.97;;;-1.40;38.50;;;;;;5071561;28;20415;-70
2022/11/27 07:10:43;;;;;;;89.57;80.00;;;-1.40;37.90;;;;;;5071508;28;20216;-70
2022/11/27 07:13:08;;;;;;;85.90;69.57;;;-1.30;38.40;;;;;;5071447;28;20183;-70
2022/11/27 07:15:34;;;;;;;87.73;71.10;;;-1.30;38.60;;;;;;5071494;28;20539;-70
2022/11/27 07:18:00;;;;;;;86.40;68.35;;;-1.40;37.90;;;;;;5071506;28;20172;-70
2022/11/27 07:20:26;;;;;;;85.90;75.50;;;-1.40;38.60;;;;;;5071466;28;20196;-70
2022/11/27 07:22:51;;;;;;;86.80;75.43;;;-1.30;38.90;;;;;;5071300;28;20582;-70
2022/11/27 07:25:17;;;;;;;83.67;62.43;;;-1.30;39.20;;;;;;5071546;28;20175;-70
2022/11/27 07:27:43;;;;;;;87.60;66.50;;;-1.20;39.10;;;;;;5071490;28;20207;-70
2022/11/27 07:30:09;;;;;;;90.30;78.97;;;-1.10;39.30;;;;;;5071163;28;20211;-70
2022/11/27 07:32:34;;;;;;;96.88;80.22;;;-1.10;40.00;;;;;;5070998;28;20668;-70
2022/11/27 07:35:00;;;;;;;89.90;66.53;;;-0.90;40.80;;;;;;5071012;28;20187;-70
2022/11/27 07:37:30;;;;;;;92.90;82.27;;;-0.80;39.80;;;;;;5088211;28;20184;-70
2022/11/27 07:39:55;;;;;;;85.43;70.15;;;-0.70;40.60;;;;;;5071068;28;20204;-70
2022/11/27 07:42:21;;;;;;;95.83;71.30;;;-0.70;41.70;;;;;;5076819;28;20651;-70
2022/11/27 07:44:46;;;;;;;284.20;265.83;;;-0.40;41.20;;;;;;5091244;28;20189;-70
2022/11/27 07:47:12;;;;;;;89.47;68.17;;;-0.30;40.20;;;;;;5090068;28;20205;-70
2022/11/27 07:49:38;;;;;;;259.67;241.77;;;-0.20;39.80;;;;;;5085324;28;20292;-71
2022/11/27 07:52:04;;;;;;;99.57;88.73;;;-0.20;38.90;;;;;;5072112;28;20188;-71
2022/11/27 07:54:29;;;;;;;87.20;67.97;;;-0.10;37.70;;;;;;5071091;28;20644;-70
2022/11/27 07:56:55;;;;;;;114.63;103.37;;;-0.10;37.90;;;;;;5076001;28;20187;-71
2022/11/27 07:59:21;;;;;;;95.73;78.30;;;0.00;37.80;;;;;;5094423;28;20185;-70
2022/11/27 08:01:46;;;;;;;457.27;424.87;;;0.00;38.30;;;;;;5134741;22;20252;-70
2022/11/27 08:04:12;;;;;;;124.57;112.83;;;0.10;36.70;;;;;;5115486;28;20169;-70
2022/11/27 08:06:37;;;;;;;104.53;93.60;;;0.10;36.60;;;;;;5115308;28;20187;-69
2022/11/27 08:09:03;;;;;;;263.93;243.27;;;0.10;37.20;;;;;;5082857;28;20172;-68
2022/11/27 08:11:31;;;;;;;87.70;54.50;;;0.10;36.40;;;;;;5090298;28;20243;-72
2022/11/27 08:14:03;;;;;;;121.90;110.05;;;0.20;35.40;;;;;;5076332;28;20189;-70
2022/11/27 08:16:30;;;;;;;123.15;112.05;;;0.30;35.70;;;;;;5081377;28;20188;-70
2022/11/27 08:18:55;;;;;;;188.23;172.73;;;0.20;36.70;;;;;;5072980;28;20181;-71
2022/11/27 08:21:22;;;;;;;108.27;96.87;;;0.30;35.90;;;;;;5074293;28;20691;-71
2022/11/27 08:23:48;;;;;;;255.05;235.85;;;0.30;35.40;;;;;;5074200;28;20411;-70
2022/11/27 08:26:14;;;;;;;183.63;169.30;;;0.30;35.10;;;;;;5088943;28;20629;-70
2022/11/27 08:28:40;;;;;;;111.25;98.28;;;0.40;35.70;;;;;;5076437;28;20603;-71
2022/11/27 08:31:08;;;;;;;97.07;86.60;;;0.40;35.00;;;;;;5094349;28;20591;-71
2022/11/27 08:33:34;;;;;;;121.18;109.80;;;0.40;35.60;;;;;;5094221;28;20712;-71
2022/11/27 08:36:00;;;;;;;133.95;120.93;;;0.30;35.90;;;;;;5094562;28;20471;-71
2022/11/27 08:38:26;;;;;;;99.32;83.43;;;0.40;36.60;;;;;;5094243;28;20178;-72
2022/11/27 08:40:57;;;;;;;167.20;153.65;;;0.40;36.60;;;;;;5094283;28;20234;-70
2022/11/27 08:43:23;;;;;;;215.32;196.27;;;0.60;37.10;;;;;;5076311;28;20268;-71
2022/11/27 08:45:49;;;;;;;287.08;267.20;;;0.70;36.30;;;;;;5094171;28;20169;-71
2022/11/27 08:48:15;;;;;;;156.70;143.17;;;0.80;36.40;;;;;;5076255;28;20184;-71
2022/11/27 08:50:41;;;;;;;89.80;65.07;;;0.80;36.20;;;;;;5094246;28;20463;-71
2022/11/27 08:53:07;;;;;;;148.57;135.27;;;0.80;35.40;;;;;;5094145;28;20183;-71
2022/11/27 08:55:32;;;;;;;96.13;79.80;;;0.80;34.70;;;;;;5094574;28;20674;-71
2022/11/27 08:57:58;;;;;;;160.47;147.30;;;0.80;34.60;;;;;;5076021;28;20698;-71
2022/11/27 09:00:23;;;;;;;95.57;81.63;;;0.80;34.70;;;;;;5093747;28;20219;-72
2022/11/27 09:02:49;;;;;;;87.90;72.20;;;1.10;33.70;;;;;;5093793;28;20586;-72
2022/11/27 09:05:14;;;;;;;143.37;130.90;;;1.00;32.90;;;;;;5075912;28;20189;-71
2022/11/27 09:07:40;;;;;;;88.40;63.73;;;1.10;33.40;;;;;;5093088;28;20559;-71
2022/11/27 09:10:07;;;;;;;128.90;112.50;;;1.20;33.10;;;;;;5093595;28;20213;-71
2022/11/27 09:12:32;;;;;;;517.17;478.90;;;1.40;32.80;;;;;;5094699;28;20181;-71
2022/11/27 09:14:58;;;;;;;590.73;550.80;;;1.60;30.70;;;;;;5077040;28;20169;-71
2022/11/27 09:17:24;;;;;;;558.77;520.40;;;1.70;29.40;;;;;;5077487;28;20266;-70
2022/11/27 09:19:49;;;;;;;256.10;237.33;;;1.70;29.00;;;;;;5096210;28;20180;-72
2022/11/27 09:22:15;;;;;;;307.87;285.90;;;1.70;29.30;;;;;;5095555;28;20259;-71
2022/11/27 09:24:40;;;;;;;223.33;204.83;;;1.80;29.30;;;;;;5094642;28;20173;-72
2022/11/27 09:27:06;;;;;;;328.83;304.57;;;1.90;29.20;;;;;;5094457;28;20538;-71
2022/11/27 09:29:33;;;;;;;193.77;179.03;;;2.00;28.90;;;;;;5094932;28;20201;-72
2022/11/27 09:31:59;;;;;;;215.50;199.98;;;2.10;27.70;;;;;;5094003;28;20276;-72
2022/11/27 09:34:25;;;;;;;207.53;192.27;;;2.30;28.90;;;;;;5094100;28;20230;-73
2022/11/27 09:36:50;;;;;;;288.50;271.70;;;2.50;27.30;;;;;;5094532;28;20443;-72
2022/11/27 09:39:18;;;;;;;310.07;289.40;;;2.90;27.00;;;;;;5094227;28;20170;-71
2022/11/27 09:41:58;;;;;;;261.08;241.65;;;3.30;26.20;;;;;;5093484;28;20191;-71
2022/11/27 09:44:42;;;;;;;333.83;310.42;;;3.40;25.40;;;;;;5093670;28;20213;-70
2022/11/27 09:47:40;;;;;;;360.05;334.20;;;3.70;24.20;;;;;;5075534;28;20189;-71
2022/11/27 09:50:11;;;;;;;429.08;399.58;;;3.90;23.00;;;;;;5075523;28;20757;-71
2022/11/27 09:52:39;;;;;;;309.35;288.23;;;3.80;22.70;;;;;;5093678;28;20541;-72
2022/11/27 09:55:28;;;;;;;156.32;142.98;;;3.80;23.00;;;;;;5094146;28;20193;-71
2022/11/27 09:58:04;;;;;;;361.92;335.45;;;3.70;23.50;;;;;;5075884;28;20180;-71
2022/11/27 10:00:29;;;;;;;225.15;208.60;;;3.70;23.50;;;;;;5075304;28;20417;-71
2022/11/27 10:02:55;;;;;;;423.70;396.33;;;3.70;24.20;;;;;;5093864;28;20714;-72
2022/11/27 10:05:55;;;;;;;370.60;350.00;;;3.80;24.40;;;;;;5093813;28;20546;-71
2022/11/27 10:08:29;;;;;;;325.55;305.77;;;3.90;24.40;;;;;;5054358;28;20553;-71
2022/11/27 10:11:00;;;;;;;455.35;427.83;;;4.10;23.60;;;;;;5074980;28;20217;-71
2022/11/27 10:13:38;;;;;;;329.88;308.60;;;4.20;22.90;;;;;;5074696;28;20198;-72
2022/11/27 10:16:24;;;;;;;298.90;280.00;;;4.40;22.40;;;;;;5074838;28;20183;-71
2022/11/27 10:19:07;;;;;;;523.00;492.40;;;4.40;22.40;;;;;;5092836;28;20400;-71
2022/11/27 10:21:57;;;;;;;464.42;433.58;;;4.50;22.70;;;;;;5093715;28;20479;-71
2022/11/27 10:24:41;;;;;;;349.37;329.63;;;4.40;22.00;;;;;;5074544;28;20189;-72
2022/11/27 10:27:21;;;;;;;493.80;460.43;;;4.50;22.80;;;;;;5093683;28;20482;-73
2022/11/27 10:29:51;;;;;;;344.70;324.50;;;4.60;22.60;;;;;;5074915;28;21012;-70
2022/11/27 10:32:27;;;;;;;453.47;422.67;;;4.70;22.50;;;;;;5095058;28;20785;-72
2022/11/27 10:35:01;;;;;;;382.87;359.03;;;4.80;22.30;;;;;;5093452;28;20428;-70
2022/11/27 10:37:39;;;;;;;485.97;454.97;;;4.80;22.20;;;;;;5075424;28;20421;-72
2022/11/27 10:40:11;;;;;;;615.83;574.97;;;4.80;22.40;;;;;;5093466;28;20427;-70
2022/11/27 10:42:45;;;;;;;349.97;326.73;;;4.80;22.20;;;;;;5074555;28;20419;-71
2022/11/27 10:45:19;;;;;;;477.23;442.93;;;4.90;23.40;;;;;;5093066;28;20419;-71
2022/11/27 10:47:47;;;;;;;306.93;285.10;;;4.80;22.80;;;;;;5093865;28;20788;-72
2022/11/27 10:50:17;;;;;;;555.10;515.93;;;4.80;23.80;;;;;;5091347;28;20457;-71
2022/11/27 10:52:52;;;;;;;401.43;372.93;;;4.70;24.10;;;;;;5082636;28;20424;-71
2022/11/27 10:55:32;;;;;;;356.73;335.13;;;4.70;24.10;;;;;;5072179;28;20414;-69
2022/11/27 10:58:05;;;;;;;278.98;259.48;;;4.80;24.20;;;;;;5086604;28;20423;-71
2022/11/27 11:00:31;;;;;;;500.73;463.93;;;4.70;24.10;;;;;;5091505;28;20216;-71
2022/11/27 11:03:05;;;;;;;303.10;283.23;;;4.50;23.60;;;;;;5073406;28;20434;-71
2022/11/27 11:05:32;;;;;;;450.30;421.73;;;4.50;24.00;;;;;;5092750;28;20185;-71
2022/11/27 11:08:18;;;;;;;330.38;308.40;;;4.50;24.00;;;;;;5067795;28;20268;-72
2022/11/27 11:11:05;;;;;;;556.27;519.10;;;4.40;23.90;;;;;;5089268;28;20231;-69
2022/11/27 11:13:51;;;;;;;311.73;290.63;;;4.40;23.90;;;;;;5090207;28;20405;-70
2022/11/27 11:16:23;;;;;;;457.63;428.48;;;4.30;23.80;;;;;;5090402;28;20737;-70
2022/11/27 11:18:52;;;;;;;582.43;542.13;;;4.20;24.50;;;;;;5075417;28;20184;-70
2022/11/27 11:21:28;;;;;;;395.80;367.20;;;4.10;24.80;;;;;;5072246;28;20437;-70
2022/11/27 11:24:21;;;;;;;466.80;437.42;;;4.20;25.20;;;;;;5071601;28;20241;-70
2022/11/27 11:26:50;;;;;;;331.30;308.73;;;4.20;25.70;;;;;;5040998;28;20276;-70
2022/11/27 11:29:39;;;;;;;245.48;224.98;;;4.30;25.40;;;;;;5054198;28;20180;-70
2022/11/27 11:32:11;;;;;;;269.23;251.10;;;4.40;25.60;;;;;;5056127;28;20265;-70
2022/11/27 11:34:43;;;;;;;435.47;406.77;;;4.50;26.00;;;;;;5076394;28;20178;-71
2022/11/27 11:37:30;;;;;;;214.83;198.43;;;4.60;25.20;;;;;;5086239;28;20421;-72
2022/11/27 11:40:19;;;;;;;289.10;269.52;;;4.80;24.80;;;;;;5096340;28;20758;-71
2022/11/27 11:43:03;;;;;;;514.83;483.70;;;5.00;24.20;;;;;;5078028;28;20186;-70
2022/11/27 11:45:33;;;;;;;404.87;378.50;;;5.20;24.30;;;;;;5091900;28;20419;-71
2022/11/27 11:48:01;;;;;;;394.07;369.40;;;5.30;22.40;;;;;;5073729;28;20415;-70
2022/11/27 11:50:44;;;;;;;297.47;277.83;;;5.40;22.80;;;;;;5096058;28;20472;-70
2022/11/27 11:53:34;;;;;;;325.93;304.23;;;5.60;23.10;;;;;;5075881;28;20418;-70
2022/11/27 11:56:15;;;;;;;496.17;463.07;;;5.90;21.50;;;;;;5058185;28;20423;-72
2022/11/27 11:59:01;;;;;;;247.37;229.70;;;6.20;20.90;;;;;;5075724;28;20453;-72
2022/11/27 12:02:22;;;;;;;579.17;542.70;;;6.40;20.70;;;;;;5066496;28;21007;-70
2022/11/27 12:05:01;;;;;;;441.43;415.43;;;6.50;19.60;;;;;;5092165;28;20432;-71
2022/11/27 12:07:33;;;;;;;530.40;497.43;;;6.50;19.70;;;;;;5098072;28;20434;-74
2022/11/27 12:10:20;;;;;;;409.87;382.63;;;6.60;19.60;;;;;;5077905;28;20901;-74
2022/11/27 12:12:57;;;;;;;555.47;519.57;;;6.60;18.80;;;;;;5094604;28;20412;-74
2022/11/27 12:15:43;;;;;;;238.07;221.90;;;6.50;19.00;;;;;;5079339;28;20443;-73
2022/11/27 12:18:22;;;;;;;394.63;368.47;;;6.60;19.50;;;;;;5094633;28;20415;-74
2022/11/27 12:21:05;;;;;;;546.00;512.07;;;6.70;18.80;;;;;;5096609;28;20522;-74
2022/11/27 12:24:04;;;;;;;462.50;433.93;;;6.70;18.70;;;;;;5094604;28;20436;-73
2022/11/27 12:26:38;;;;;;;271.50;253.03;;;6.80;18.80;;;;;;5077273;28;20421;-73
2022/11/27 12:29:26;;;;;;;183.67;169.00;;;7.00;18.40;;;;;;5077361;28;20456;-74
2022/11/27 12:32:27;;;;;;;528.07;495.50;;;7.20;17.70;;;;;;5094161;28;20501;-74
2022/11/27 12:35:17;;;;;;;582.63;546.23;;;7.20;16.80;;;;;;5077445;28;20441;-74
2022/11/27 12:37:53;;;;;;;524.73;491.80;;;7.20;16.80;;;;;;5095998;28;20886;-74